createdAt,value
2023-02-15T00:01:08.038Z,9.82
2023-02-15T00:04:05.054Z,9.82
2023-02-15T00:07:17.688Z,9.81
2023-02-15T00:10:20.651Z,9.81
2023-02-15T00:13:21.641Z,9.83
2023-02-15T00:16:19.278Z,9.85
2023-02-15T00:19:21.368Z,9.85
2023-02-15T00:22:10.117Z,9.84
2023-02-15T00:25:07.998Z,9.83
2023-02-15T00:28:10.268Z,9.82
2023-02-15T00:31:04.840Z,9.82
2023-02-15T00:34:14.571Z,9.85
2023-02-15T00:37:23.303Z,9.88
2023-02-15T00:40:15.193Z,9.89
2023-02-15T00:43:17.744Z,9.91
2023-02-15T00:46:26.478Z,9.94
2023-02-15T00:49:20.213Z,9.96
2023-02-15T00:52:28.954Z,9.99
2023-02-15T00:55:37.784Z,10.01
2023-02-15T00:58:47.023Z,10.01
2023-02-15T01:01:55.746Z,9.99
2023-02-15T01:05:06.499Z,10.00
2023-02-15T01:08:05.818Z,10.01
2023-02-15T01:11:15.449Z,10.03
2023-02-15T01:14:13.671Z,10.02
2023-02-15T01:17:22.800Z,10.00
2023-02-15T01:20:22.570Z,9.97
2023-02-15T01:23:31.684Z,9.94
2023-02-15T01:26:40.420Z,9.91
2023-02-15T01:29:49.202Z,9.87
2023-02-15T01:32:41.190Z,9.84
2023-02-15T01:35:33.394Z,9.82
2023-02-15T01:38:36.080Z,9.80
2023-02-15T01:41:44.985Z,9.77
2023-02-15T01:44:56.608Z,9.73
2023-02-15T01:48:06.739Z,9.70
2023-02-15T01:51:03.107Z,9.68
2023-02-15T01:54:16.637Z,9.68
2023-02-15T01:57:06.318Z,9.69
2023-02-15T02:00:17.673Z,9.71
2023-02-15T02:03:31.780Z,9.74
2023-02-15T02:06:41.370Z,9.77
2023-02-15T02:09:50.496Z,9.77
2023-02-15T02:12:51.408Z,9.74
2023-02-15T02:16:05.358Z,9.70
2023-02-15T02:19:34.293Z,9.67
2023-02-15T02:22:50.167Z,9.62
2023-02-15T02:26:04.200Z,9.57
2023-02-15T02:29:05.190Z,9.51
2023-02-15T02:32:13.669Z,9.47
2023-02-15T02:35:18.532Z,9.42
2023-02-15T02:38:30.123Z,9.39
2023-02-15T02:41:44.265Z,9.36
2023-02-15T02:44:43.987Z,9.33
2023-02-15T02:47:47.420Z,9.29
2023-02-15T02:50:45.341Z,9.26
2023-02-15T02:53:57.319Z,9.25
2023-02-15T02:56:57.780Z,9.24
2023-02-15T02:59:52.485Z,9.24
2023-02-15T03:03:05.671Z,9.23
2023-02-15T03:06:07.506Z,9.22
2023-02-15T03:09:19.104Z,9.21
2023-02-15T03:12:30.385Z,9.26
2023-02-15T03:15:47.348Z,9.33
2023-02-15T03:18:53.115Z,9.39
2023-02-15T03:22:09.526Z,9.51
2023-02-15T03:25:20.514Z,9.61
2023-02-15T03:28:32.591Z,9.68
2023-02-15T03:31:44.486Z,9.73
2023-02-15T03:34:45.404Z,9.79
2023-02-15T03:37:45.479Z,9.85
2023-02-15T03:40:56.030Z,9.89
2023-02-15T03:43:50.715Z,9.93
2023-02-15T03:47:02.649Z,9.95
2023-02-15T03:50:29.211Z,9.96
2023-02-15T03:53:39.039Z,9.96
2023-02-15T03:57:07.753Z,9.97
2023-02-15T04:00:36.950Z,9.98
2023-02-15T04:03:40.760Z,9.97
2023-02-15T04:06:31.317Z,9.95
2023-02-15T04:09:58.435Z,9.93
2023-02-15T04:12:58.621Z,9.90
2023-02-15T04:16:04.120Z,9.89
2023-02-15T04:19:31.412Z,9.89
2023-02-15T04:22:58.666Z,9.91
2023-02-15T04:26:00.627Z,9.96
2023-02-15T04:29:00.814Z,10.01
2023-02-15T04:32:09.564Z,10.05
2023-02-15T04:35:18.454Z,10.09
2023-02-15T04:38:16.212Z,10.13
2023-02-15T04:41:17.706Z,10.17
2023-02-15T04:44:26.530Z,10.21
2023-02-15T04:47:28.144Z,10.23
2023-02-15T04:50:36.663Z,10.24
2023-02-15T04:53:38.244Z,10.24
2023-02-15T04:56:38.147Z,10.24
2023-02-15T04:59:29.663Z,10.23
2023-02-15T05:02:29.152Z,10.22
2023-02-15T05:05:27.772Z,10.23
2023-02-15T05:08:16.808Z,10.22
2023-02-15T05:11:26.176Z,10.22
2023-02-15T05:14:14.823Z,10.23
2023-02-15T05:17:03.800Z,10.04
2023-02-15T05:20:12.876Z,9.57
2023-02-15T05:23:06.675Z,9.17
2023-02-15T05:26:28.463Z,8.80
2023-02-15T05:29:30.381Z,8.46
2023-02-15T05:32:31.838Z,8.24
2023-02-15T05:35:40.702Z,8.02
2023-02-15T05:38:31.618Z,7.86
2023-02-15T05:41:39.604Z,7.70
2023-02-15T05:44:30.678Z,7.58
2023-02-15T05:47:39.276Z,7.48
2023-02-15T05:50:31.088Z,7.38
2023-02-15T05:53:40.427Z,7.29
2023-02-15T05:56:49.148Z,7.19
2023-02-15T05:59:37.822Z,7.13
2023-02-15T06:02:26.824Z,7.10
2023-02-15T06:05:35.527Z,7.06
2023-02-15T06:08:24.015Z,7.01
2023-02-15T06:11:12.512Z,6.96
2023-02-15T06:14:03.413Z,6.91
2023-02-15T06:16:51.927Z,6.84
2023-02-15T06:19:50.585Z,6.79
2023-02-15T06:22:59.542Z,6.77
2023-02-15T06:25:48.275Z,6.76
2023-02-15T06:28:39.216Z,6.76
2023-02-15T06:31:35.267Z,6.76
2023-02-15T06:34:36.925Z,6.76
2023-02-15T06:37:28.017Z,6.74
2023-02-15T06:40:29.033Z,6.72
2023-02-15T06:43:17.808Z,6.68
2023-02-15T06:46:20.270Z,6.63
2023-02-15T06:49:16.324Z,6.59
2023-02-15T06:52:18.097Z,6.56
2023-02-15T06:55:09.848Z,6.50
2023-02-15T06:58:05.784Z,6.46
2023-02-15T07:01:09.067Z,6.45
2023-02-15T07:04:17.825Z,6.44
2023-02-15T07:07:10.822Z,6.42
2023-02-15T07:10:01.865Z,6.41
2023-02-15T07:12:52.922Z,6.40
2023-02-15T07:15:44.720Z,6.37
2023-02-15T07:18:33.330Z,6.35
2023-02-15T07:21:24.532Z,6.31
2023-02-15T07:24:24.045Z,6.29
2023-02-15T07:27:26.217Z,6.26
2023-02-15T07:30:25.798Z,6.24
2023-02-15T07:33:27.504Z,6.26
2023-02-15T07:36:28.742Z,6.28
2023-02-15T07:39:19.552Z,6.30
2023-02-15T07:42:10.508Z,6.33
2023-02-15T07:45:11.605Z,6.37
2023-02-15T07:48:03.493Z,6.41
2023-02-15T07:50:51.775Z,6.43
2023-02-15T07:53:40.433Z,6.45
2023-02-15T07:56:33.509Z,6.45
2023-02-15T07:59:42.748Z,6.46
2023-02-15T08:03:09.693Z,6.48
2023-02-15T08:06:13.528Z,6.48
2023-02-15T08:09:12.136Z,6.47
2023-02-15T08:12:00.417Z,6.46
2023-02-15T08:15:01.992Z,6.47
2023-02-15T08:18:10.825Z,6.45
2023-02-15T08:21:19.698Z,6.44
2023-02-15T08:24:20.286Z,6.46
2023-02-15T08:27:29.081Z,6.48
2023-02-15T08:30:25.533Z,6.53
2023-02-15T08:33:34.324Z,6.58
2023-02-15T08:36:34.267Z,6.63
2023-02-15T08:39:25.325Z,6.68
2023-02-15T08:42:16.653Z,6.73
2023-02-15T08:45:25.946Z,6.77
2023-02-15T08:48:24.781Z,6.82
2023-02-15T08:51:16.720Z,6.86
2023-02-15T08:54:14.948Z,6.88
2023-02-15T08:57:03.361Z,6.89
2023-02-15T08:59:51.954Z,6.92
2023-02-15T09:02:40.772Z,6.98
2023-02-15T09:05:31.803Z,7.02
2023-02-15T09:08:22.918Z,7.06
2023-02-15T09:11:12.337Z,7.10
2023-02-15T09:14:02.280Z,7.12
2023-02-15T09:16:52.092Z,7.13
2023-02-15T09:19:40.641Z,7.14
2023-02-15T09:22:32.280Z,7.15
2023-02-15T09:25:24.055Z,7.15
2023-02-15T09:28:15.080Z,7.16
2023-02-15T09:31:07.728Z,7.18
2023-02-15T09:33:56.617Z,7.15
2023-02-15T09:36:57.783Z,7.12
2023-02-15T09:39:49.384Z,7.10
2023-02-15T09:43:00.684Z,7.12
2023-02-15T09:45:56.632Z,7.18
2023-02-15T09:49:00.346Z,7.25
2023-02-15T09:52:15.356Z,7.33
2023-02-15T09:55:20.386Z,7.42
2023-02-15T09:58:25.639Z,7.53
2023-02-15T10:01:22.015Z,7.68
2023-02-15T10:04:45.385Z,7.88
2023-02-15T10:07:51.447Z,8.13
2023-02-15T10:10:46.591Z,8.30
2023-02-15T10:13:51.494Z,8.41
2023-02-15T10:16:46.034Z,8.44
2023-02-15T10:19:58.400Z,8.43
2023-02-15T10:22:58.370Z,8.40
2023-02-15T10:25:48.045Z,8.43
2023-02-15T10:28:46.299Z,8.58
2023-02-15T10:31:38.646Z,8.85
2023-02-15T10:34:32.612Z,9.16
2023-02-15T10:37:40.239Z,9.47
2023-02-15T10:40:56.946Z,9.77
2023-02-15T10:43:56.221Z,10.05
2023-02-15T10:47:11.398Z,10.31
2023-02-15T10:50:19.709Z,10.51
2023-02-15T10:53:14.383Z,10.60
2023-02-15T10:56:10.469Z,10.70
2023-02-15T10:59:25.970Z,10.76
2023-02-15T11:02:20.533Z,10.83
2023-02-15T11:05:33.681Z,10.84
2023-02-15T11:08:24.633Z,10.75
2023-02-15T11:11:16.014Z,10.64
2023-02-15T11:14:09.747Z,10.55
2023-02-15T11:17:00.902Z,10.46
2023-02-15T11:20:11.977Z,10.38
2023-02-15T11:23:15.794Z,10.36
2023-02-15T11:26:05.686Z,10.37
2023-02-15T11:28:59.659Z,10.38
2023-02-15T11:31:55.584Z,10.39
2023-02-15T11:34:48.375Z,10.42
2023-02-15T11:37:41.503Z,10.42
2023-02-15T11:40:43.955Z,10.43
2023-02-15T11:43:36.808Z,10.43
2023-02-15T11:46:25.671Z,10.46
2023-02-15T11:49:21.689Z,10.54
2023-02-15T11:52:13.285Z,10.59
2023-02-15T11:55:02.418Z,10.56
2023-02-15T11:58:17.423Z,10.49
2023-02-15T12:01:18.616Z,10.45
2023-02-15T12:04:31.418Z,10.48
2023-02-15T12:07:43.926Z,10.54
2023-02-15T12:10:35.867Z,10.58
2023-02-15T12:13:24.362Z,10.60
2023-02-15T12:16:13.237Z,10.65
2023-02-15T12:19:20.562Z,10.79
2023-02-15T12:22:19.343Z,11.01
2023-02-15T12:25:22.032Z,11.16
2023-02-15T12:28:24.502Z,11.31
2023-02-15T12:31:21.067Z,11.63
2023-02-15T12:34:13.386Z,11.79
2023-02-15T12:37:08.725Z,11.70
2023-02-15T12:40:22.083Z,11.48
2023-02-15T12:43:25.330Z,11.31
2023-02-15T12:46:22.036Z,11.23
2023-02-15T12:49:20.769Z,11.19
2023-02-15T12:52:29.955Z,11.19
2023-02-15T12:55:23.372Z,11.13
2023-02-15T12:58:17.348Z,11.06
2023-02-15T13:01:14.060Z,10.97
2023-02-15T13:04:04.229Z,10.91
2023-02-15T13:07:02.586Z,10.86
2023-02-15T13:09:54.491Z,10.81
2023-02-15T13:12:47.553Z,10.83
2023-02-15T13:15:41.424Z,10.99
2023-02-15T13:18:32.565Z,11.26
2023-02-15T13:21:23.562Z,11.32
2023-02-15T13:24:17.101Z,11.35
2023-02-15T13:27:16.040Z,11.38
2023-02-15T13:30:09.886Z,11.45
2023-02-15T13:33:00.679Z,11.56
2023-02-15T13:36:03.639Z,11.68
2023-02-15T13:39:03.750Z,11.87
2023-02-15T13:42:06.934Z,11.98
2023-02-15T13:45:02.190Z,12.15
2023-02-15T13:47:52.945Z,12.24
2023-02-15T13:51:07.516Z,12.19
2023-02-15T13:54:10.835Z,12.32
2023-02-15T13:57:05.492Z,12.51
2023-02-15T14:00:01.639Z,12.49
2023-02-15T14:02:58.758Z,12.28
2023-02-15T14:05:55.332Z,12.11
2023-02-15T14:09:01.155Z,12.00
2023-02-15T14:11:56.970Z,11.99
2023-02-15T14:14:56.262Z,11.99
2023-02-15T14:17:57.496Z,11.90
2023-02-15T14:20:52.126Z,11.77
2023-02-15T14:23:44.905Z,11.65
2023-02-15T14:26:37.823Z,11.56
2023-02-15T14:29:31.370Z,11.48
2023-02-15T14:32:24.931Z,11.41
2023-02-15T14:35:23.927Z,11.39
2023-02-15T14:38:19.117Z,11.38
2023-02-15T14:41:10.076Z,11.36
2023-02-15T14:44:08.060Z,11.33
2023-02-15T14:47:12.230Z,11.29
2023-02-15T14:50:20.796Z,11.30
2023-02-15T14:53:33.783Z,11.40
2023-02-15T14:56:23.740Z,11.42
2023-02-15T14:59:15.786Z,11.38
2023-02-15T15:02:13.716Z,11.33
2023-02-15T15:05:07.198Z,11.26
2023-02-15T15:08:23.484Z,11.20
2023-02-15T15:11:42.666Z,11.13
2023-02-15T15:14:43.020Z,11.02
2023-02-15T15:18:01.077Z,10.92
2023-02-15T15:20:51.750Z,10.84
2023-02-15T15:23:45.064Z,10.77
2023-02-15T15:30:40.192Z,10.68
2023-02-15T15:33:58.100Z,10.63
2023-02-15T15:37:10.003Z,10.59
2023-02-15T15:40:31.256Z,10.55
2023-02-15T15:43:41.122Z,10.51
2023-02-15T15:46:40.902Z,10.44
2023-02-15T15:49:32.332Z,10.36
2023-02-15T15:52:21.702Z,10.31
2023-02-15T15:55:16.491Z,10.31
2023-02-15T15:58:06.824Z,10.32
2023-02-15T16:00:58.261Z,10.31
2023-02-15T16:03:52.827Z,10.35
2023-02-15T16:06:42.034Z,10.41
2023-02-15T16:09:30.422Z,10.48
2023-02-15T16:12:20.989Z,10.52
2023-02-15T16:15:59.448Z,10.55
2023-02-15T16:24:34.027Z,10.44
2023-02-15T16:38:19.796Z,10.14
2023-02-15T16:41:15.000Z,10.04
2023-02-15T16:49:29.289Z,9.87
2023-02-15T16:53:41.996Z,9.81
2023-02-15T17:14:47.225Z,9.49
2023-02-15T17:20:14.378Z,9.43
2023-02-15T17:23:29.854Z,9.37
2023-02-15T17:28:43.238Z,9.32
2023-02-15T17:36:19.110Z,9.25
2023-02-15T17:40:43.025Z,9.22
2023-02-15T17:49:02.797Z,9.19
2023-02-15T18:03:12.157Z,9.17
2023-02-15T18:10:18.498Z,9.18
2023-02-15T18:17:33.331Z,9.19
2023-02-15T18:28:19.267Z,9.20
2023-02-15T18:39:24.729Z,9.14
2023-02-15T18:43:21.413Z,9.14
2023-02-15T18:48:40.465Z,9.15
2023-02-15T18:56:29.084Z,9.14
2023-02-15T19:06:32.730Z,9.07
2023-02-15T19:08:55.305Z,9.04
2023-02-15T19:25:52.324Z,9.00
2023-02-15T19:25:53.019Z,8.96
2023-02-15T19:34:13.585Z,8.92
2023-02-15T19:43:48.968Z,8.93
2023-02-15T19:51:54.056Z,8.92
2023-02-15T20:22:13.142Z,8.95
2023-02-15T20:26:44.669Z,8.94
2023-02-15T21:06:41.298Z,8.91
2023-02-15T22:21:53.147Z,8.62
2023-02-15T22:24:45.529Z,8.59
2023-02-15T22:27:39.600Z,8.56
2023-02-15T22:30:38.710Z,8.51
2023-02-15T22:33:29.063Z,8.46
2023-02-15T22:36:39.100Z,8.42
2023-02-15T22:39:28.548Z,8.40
2023-02-15T22:42:24.600Z,8.37
2023-02-15T22:45:18.174Z,8.34
2023-02-15T22:48:10.161Z,8.30
2023-02-15T22:51:20.473Z,8.26
2023-02-15T22:54:22.027Z,8.24
2023-02-15T22:57:32.292Z,8.23
2023-02-15T23:00:26.525Z,8.23
2023-02-15T23:03:44.633Z,8.23
2023-02-15T23:06:45.015Z,8.24
2023-02-15T23:09:34.111Z,8.23
2023-02-15T23:12:57.853Z,8.21
2023-02-15T23:16:15.358Z,8.20
2023-02-15T23:19:12.492Z,8.18
2023-02-15T23:22:22.060Z,8.17
2023-02-15T23:25:24.024Z,8.16
2023-02-15T23:28:33.998Z,8.13
2023-02-15T23:31:31.464Z,8.10
2023-02-15T23:34:25.264Z,8.07
2023-02-15T23:37:34.335Z,8.05
2023-02-15T23:41:02.082Z,8.05
2023-02-15T23:43:55.800Z,8.05
2023-02-15T23:46:47.299Z,8.07
2023-02-15T23:49:39.307Z,8.11
2023-02-15T23:52:49.834Z,8.13
2023-02-15T23:55:57.860Z,8.16
2023-02-15T23:59:00.045Z,8.20
